Time;durP1;ratioP1;P1;durP2;ratioP2;P2;SDS_P1;SDS_P2;PMS_P1;PMS_P2;Temp;Humidity;BMP_temperature;BMP_pressure;BME280_temperature;BME280_humidity;BME280_pressure;Samples;Min_cycle;Max_cycle;Signal;HPM_P1;HPM_P2
2022/06/08 00:01:38;;;;;;;55.30;28.87;;;14.90;99.90;;;;;;5033726;28;20614;-80
2022/06/08 00:04:07;;;;;;;70.03;29.87;;;15.00;99.90;;;;;;5016178;28;20286;-79
2022/06/08 00:06:34;;;;;;;62.17;28.30;;;15.10;99.90;;;;;;5032857;28;20232;-80
2022/06/08 00:09:02;;;;;;;57.90;29.17;;;15.10;99.90;;;;;;5035472;28;20208;-80
2022/06/08 00:11:30;;;;;;;59.30;28.67;;;15.20;99.90;;;;;;5020877;28;20209;-80
2022/06/08 00:13:58;;;;;;;59.80;27.53;;;15.10;99.90;;;;;;5004268;28;20312;-78
2022/06/08 00:16:25;;;;;;;55.67;27.13;;;15.10;99.90;;;;;;5017349;28;20276;-80
2022/06/08 00:18:53;;;;;;;58.20;28.53;;;15.00;99.90;;;;;;5021712;28;20224;-81
2022/06/08 00:21:20;;;;;;;59.83;27.23;;;15.00;99.90;;;;;;5021981;28;20315;-80
2022/06/08 00:23:47;;;;;;;59.63;28.23;;;14.90;99.90;;;;;;5023288;28;20732;-80
2022/06/08 00:26:14;;;;;;;59.43;26.83;;;14.80;99.90;;;;;;5037676;28;20877;-79
2022/06/08 00:28:43;;;;;;;61.90;28.00;;;14.80;99.90;;;;;;5019688;28;20283;-79
2022/06/08 00:31:11;;;;;;;60.37;27.20;;;16.70;99.90;;;;;;5016807;28;20712;-79
2022/06/08 00:33:42;;;;;;;59.60;27.43;;;14.60;99.90;;;;;;5019226;28;20236;-79
2022/06/08 00:36:10;;;;;;;66.27;29.50;;;14.60;99.90;;;;;;5033022;28;20781;-79
2022/06/08 00:38:37;;;;;;;66.90;29.57;;;14.60;99.90;;;;;;5039683;28;20250;-79
2022/06/08 00:41:20;;;;;;;58.23;28.03;;;14.50;99.90;;;;;;5021144;28;20213;-79
2022/06/08 00:43:49;;;;;;;66.83;29.30;;;14.50;99.90;;;;;;5019451;28;20284;-79
2022/06/08 00:46:16;;;;;;;67.30;27.80;;;14.40;99.90;;;;;;5019719;28;20228;-78
2022/06/08 00:48:48;;;;;;;77.03;29.60;;;14.40;99.90;;;;;;5035586;28;20207;-80
2022/06/08 00:51:16;;;;;;;74.43;30.67;;;14.40;99.90;;;;;;5036763;28;20254;-79
2022/06/08 00:53:49;;;;;;;67.97;28.47;;;14.30;99.90;;;;;;5018852;28;20205;-81
2022/06/08 00:56:20;;;;;;;72.60;28.13;;;14.30;99.90;;;;;;5019830;28;20251;-80
2022/06/08 00:58:47;;;;;;;76.67;28.50;;;14.20;99.90;;;;;;5037374;28;20236;-81
2022/06/08 01:01:16;;;;;;;84.70;31.10;;;14.20;99.90;;;;;;5020492;28;20201;-80
2022/06/08 01:03:43;;;;;;;83.23;31.50;;;14.20;99.90;;;;;;5036361;28;20265;-79
2022/06/08 01:06:19;;;;;;;107.07;34.47;;;14.20;99.90;;;;;;5035390;28;20295;-81
2022/06/08 01:08:51;;;;;;;104.80;35.10;;;14.20;99.90;;;;;;5035891;28;20750;-80
2022/06/08 01:11:29;;;;;;;105.83;34.40;;;14.30;99.90;;;;;;5035464;28;20222;-83
2022/06/08 01:14:02;;;;;;;112.87;36.30;;;14.40;99.90;;;;;;5022436;28;20223;-80
2022/06/08 01:16:32;;;;;;;114.87;34.90;;;14.50;99.90;;;;;;5033587;28;20257;-79
2022/06/08 01:19:01;;;;;;;109.23;33.23;;;14.50;99.90;;;;;;5015639;28;20245;-80
2022/06/08 01:22:04;;;;;;;104.80;31.63;;;14.50;99.90;;;;;;5023492;28;20277;-80
2022/06/08 01:24:41;;;;;;;82.77;29.53;;;14.40;99.90;;;;;;4958336;28;20900;-84
2022/06/08 01:27:31;;;;;;;88.33;29.17;;;14.40;99.90;;;;;;5002109;28;20245;-84
2022/06/08 01:30:22;;;;;;;82.87;27.27;;;14.30;99.90;;;;;;5014130;28;20275;-85
2022/06/08 01:33:41;;;;;;;82.40;29.10;;;14.30;99.90;;;;;;5025296;28;20220;-84
2022/06/08 01:36:32;;;;;;;80.43;27.27;;;14.20;99.90;;;;;;4906471;29;20301;-85
2022/06/08 01:39:06;;;;;;;82.03;27.73;;;14.20;99.90;;;;;;4920622;29;20231;-83
2022/06/08 01:41:57;;;;;;;76.33;28.77;;;14.10;99.90;;;;;;4992694;28;20225;-85
2022/06/08 01:45:28;;;;;;;70.27;27.30;;;14.20;99.90;;;;;;5019842;28;20219;-85
2022/06/08 01:47:44;;;;;;;80.63;27.13;;;14.20;99.90;;;;;;5012992;28;20228;-85
2022/06/08 01:50:21;;;;;;;76.57;26.77;;;14.10;99.90;;;;;;5013321;28;20694;-86
2022/06/08 01:52:59;;;;;;;65.40;25.57;;;14.10;99.90;;;;;;5030396;28;20668;-85
2022/06/08 01:55:37;;;;;;;71.43;25.33;;;14.10;99.90;;;;;;5013370;28;20907;-85
2022/06/08 01:58:15;;;;;;;72.90;26.90;;;14.00;99.90;;;;;;5012940;28;20757;-84
2022/06/08 02:00:47;;;;;;;79.40;27.00;;;14.00;99.90;;;;;;5000932;28;20213;-85
2022/06/08 02:03:20;;;;;;;74.67;27.10;;;13.90;99.90;;;;;;5030157;28;20208;-85
2022/06/08 02:05:56;;;;;;;71.90;26.90;;;13.80;99.90;;;;;;5013300;28;20219;-87
2022/06/08 02:08:33;;;;;;;74.57;27.63;;;13.90;99.90;;;;;;5012442;28;20220;-85
2022/06/08 02:11:11;;;;;;;71.47;26.90;;;13.80;99.90;;;;;;5031478;28;20964;-86
2022/06/08 02:13:44;;;;;;;69.80;26.97;;;13.80;99.90;;;;;;5009002;28;20230;-87
2022/06/08 02:16:19;;;;;;;78.50;28.00;;;13.80;99.90;;;;;;5013463;28;20513;-83
2022/06/08 02:18:54;;;;;;;84.00;27.30;;;13.80;99.90;;;;;;5020890;28;20239;-82
2022/06/08 02:21:28;;;;;;;67.57;26.87;;;13.80;99.90;;;;;;5013145;28;20640;-83
2022/06/08 02:23:58;;;;;;;90.87;28.23;;;13.70;99.90;;;;;;5014348;28;20265;-82
2022/06/08 02:26:30;;;;;;;92.17;28.07;;;13.70;99.90;;;;;;5027901;28;20247;-82
2022/06/08 02:29:03;;;;;;;78.00;26.30;;;13.60;99.90;;;;;;5018981;28;20200;-83
2022/06/08 02:31:36;;;;;;;83.23;26.23;;;13.60;99.90;;;;;;5010767;28;20210;-82
2022/06/08 02:34:29;;;;;;;80.50;27.00;;;13.50;99.90;;;;;;5030551;28;20215;-83
2022/06/08 02:37:05;;;;;;;75.60;27.20;;;13.50;99.90;;;;;;5002859;28;20236;-83
2022/06/08 02:39:39;;;;;;;67.20;26.73;;;13.50;99.90;;;;;;5016426;28;20801;-82
2022/06/08 02:42:12;;;;;;;70.23;27.70;;;13.50;99.90;;;;;;5017776;28;20224;-84
2022/06/08 02:44:41;;;;;;;74.13;26.20;;;13.50;99.90;;;;;;5014802;28;20900;-83
2022/06/08 02:47:15;;;;;;;75.97;25.83;;;13.50;99.90;;;;;;5020596;28;20245;-84
2022/06/08 02:49:42;;;;;;;66.40;25.77;;;13.50;99.90;;;;;;5013680;28;20213;-85
2022/06/08 02:52:20;;;;;;;79.10;26.67;;;13.50;99.90;;;;;;5013336;28;20249;-85
2022/06/08 02:54:49;;;;;;;73.23;26.57;;;13.50;99.90;;;;;;5021069;28;20844;-85
2022/06/08 02:57:25;;;;;;;65.87;25.23;;;13.40;99.90;;;;;;5026597;28;20236;-85
2022/06/08 03:00:13;;;;;;;79.80;25.53;;;13.40;99.90;;;;;;5007336;28;20307;-85
2022/06/08 03:02:49;;;;;;;69.07;26.23;;;13.40;99.90;;;;;;5015291;28;20204;-84
2022/06/08 03:05:20;;;;;;;70.03;25.53;;;13.40;99.90;;;;;;5016408;28;20224;-81
2022/06/08 03:07:53;;;;;;;64.57;24.23;;;13.40;99.90;;;;;;5017362;28;20227;-80
2022/06/08 03:10:21;;;;;;;67.80;25.03;;;13.40;99.90;;;;;;5016463;28;20294;-81
2022/06/08 03:12:57;;;;;;;71.00;26.47;;;13.40;99.90;;;;;;5016425;28;20458;-81
2022/06/08 03:15:26;;;;;;;64.30;25.30;;;13.40;99.90;;;;;;5016170;28;20207;-81
2022/06/08 03:17:55;;;;;;;58.53;23.50;;;13.50;99.90;;;;;;5015943;28;20296;-80
2022/06/08 03:20:25;;;;;;;68.87;26.20;;;13.50;99.90;;;;;;5010998;28;20218;-77
2022/06/08 03:22:53;;;;;;;66.43;25.83;;;13.50;99.90;;;;;;5029325;28;20592;-78
2022/06/08 03:25:21;;;;;;;63.83;25.00;;;13.50;99.90;;;;;;5009048;28;20691;-77
2022/06/08 03:27:53;;;;;;;64.43;25.03;;;13.60;99.90;;;;;;5008897;28;20240;-77
2022/06/08 03:30:22;;;;;;;58.17;23.03;;;13.60;99.90;;;;;;5005513;28;20245;-77
2022/06/08 03:32:49;;;;;;;59.00;24.40;;;13.70;99.90;;;;;;5009642;28;20217;-78
2022/06/08 03:35:18;;;;;;;59.80;22.97;;;13.70;99.90;;;;;;5014451;28;20224;-78
2022/06/08 03:37:46;;;;;;;54.60;21.97;;;13.80;99.90;;;;;;5009732;28;20224;-78
2022/06/08 03:40:16;;;;;;;54.67;22.47;;;13.90;99.90;;;;;;5009633;28;20222;-77
2022/06/08 03:42:45;;;;;;;48.57;20.37;;;13.90;99.90;;;;;;5010775;28;20259;-78
2022/06/08 03:45:14;;;;;;;45.27;20.37;;;14.00;99.90;;;;;;5014941;28;20259;-78
2022/06/08 03:47:44;;;;;;;51.07;21.43;;;14.00;99.90;;;;;;5013690;28;20244;-78
2022/06/08 03:50:15;;;;;;;44.27;19.47;;;14.10;99.90;;;;;;5013849;28;20225;-77
2022/06/08 03:52:46;;;;;;;45.70;20.17;;;14.10;99.90;;;;;;5015759;28;20219;-78
2022/06/08 03:55:16;;;;;;;37.83;18.43;;;14.20;99.90;;;;;;5014679;28;20708;-78
2022/06/08 03:57:45;;;;;;;38.23;18.73;;;14.20;99.90;;;;;;5024493;28;20240;-78
2022/06/08 04:00:17;;;;;;;38.87;20.10;;;14.30;99.90;;;;;;5012598;28;20213;-77
2022/06/08 04:03:02;;;;;;;38.77;18.57;;;14.30;99.90;;;;;;5020446;28;20287;-77
2022/06/08 04:05:32;;;;;;;30.27;15.90;;;14.30;99.90;;;;;;5016541;28;20217;-79
2022/06/08 04:08:03;;;;;;;38.43;18.20;;;14.40;99.90;;;;;;5029054;23;20242;-86
2022/06/08 04:10:32;;;;;;;35.57;17.57;;;14.40;99.90;;;;;;5046301;28;20224;-86
2022/06/08 04:12:59;;;;;;;33.47;16.83;;;14.40;99.90;;;;;;5041012;28;20739;-86
2022/06/08 04:15:43;;;;;;;32.60;16.87;;;14.50;99.90;;;;;;5047214;28;20688;-85
2022/06/08 04:18:17;;;;;;;32.47;15.33;;;14.50;99.90;;;;;;5051681;28;20208;-90
2022/06/08 04:20:50;;;;;;;29.47;14.40;;;14.60;99.90;;;;;;5034892;28;20274;-90
2022/06/08 04:23:18;;;;;;;27.53;14.90;;;14.70;99.90;;;;;;5040858;28;20398;-89
2022/06/08 04:25:45;;;;;;;24.07;13.27;;;14.80;99.90;;;;;;5036071;28;20204;-90
2022/06/08 04:28:17;;;;;;;25.17;13.27;;;14.80;99.90;;;;;;5054584;28;20737;-90
2022/06/08 04:30:51;;;;;;;22.73;13.53;;;14.90;99.90;;;;;;5034657;28;20980;-89
2022/06/08 04:33:19;;;;;;;21.47;13.70;;;15.20;99.90;;;;;;5041709;28;20308;-90
2022/06/08 04:35:47;;;;;;;20.37;11.37;;;15.00;99.90;;;;;;5041717;28;20221;-90
2022/06/08 04:40:51;;;;;;;25.63;11.77;;;15.20;99.90;;;;;;5035439;28;20224;-76
2022/06/08 04:43:18;;;;;;;17.73;10.60;;;15.20;99.90;;;;;;5576651;22;20232;-78
2022/06/08 04:45:46;;;;;;;21.50;10.50;;;15.20;99.90;;;;;;5057387;28;20247;-80
2022/06/08 04:48:16;;;;;;;16.77;9.93;;;15.30;99.90;;;;;;5055438;28;20665;-78
2022/06/08 04:50:43;;;;;;;17.40;10.13;;;15.30;99.90;;;;;;5054705;28;20211;-78
2022/06/08 04:53:11;;;;;;;14.83;10.27;;;15.30;99.90;;;;;;5050965;28;20294;-77
2022/06/08 04:55:40;;;;;;;16.17;9.57;;;15.40;99.90;;;;;;5027250;28;20686;-78
2022/06/08 04:58:08;;;;;;;14.93;8.90;;;15.50;99.90;;;;;;5027514;28;20398;-77
2022/06/08 05:00:37;;;;;;;15.27;8.83;;;15.60;99.90;;;;;;5027360;28;20706;-78
2022/06/08 05:03:07;;;;;;;13.93;8.23;;;15.70;99.90;;;;;;5035903;28;20253;-78
2022/06/08 05:05:42;;;;;;;12.27;8.20;;;15.90;99.90;;;;;;5035438;28;20311;-77
2022/06/08 05:08:13;;;;;;;13.20;8.17;;;16.10;99.90;;;;;;5042328;28;20221;-78
2022/06/08 05:10:44;;;;;;;12.60;7.33;;;16.30;99.90;;;;;;5034472;28;20646;-78
2022/06/08 05:13:15;;;;;;;13.73;6.67;;;16.50;99.90;;;;;;5022926;28;20264;-78
2022/06/08 05:15:46;;;;;;;10.57;6.13;;;16.80;99.90;;;;;;5018936;28;20569;-78
2022/06/08 05:18:16;;;;;;;6.83;5.00;;;17.00;99.90;;;;;;5017594;28;20649;-79
2022/06/08 05:20:45;;;;;;;8.30;5.03;;;17.20;99.90;;;;;;5035122;28;20550;-79
2022/06/08 05:23:18;;;;;;;7.53;4.80;;;17.40;99.90;;;;;;5024565;28;20682;-78
2022/06/08 05:25:46;;;;;;;6.20;4.10;;;17.80;99.90;;;;;;5025515;28;20237;-78
2022/06/08 05:28:14;;;;;;;7.53;3.90;;;18.10;99.90;;;;;;5039264;28;20300;-79
2022/06/08 05:30:49;;;;;;;4.07;3.43;;;18.50;99.90;;;;;;5047153;28;20285;-78
2022/06/08 05:33:17;;;;;;;5.53;3.43;;;18.90;99.90;;;;;;5040128;28;20721;-80
2022/06/08 05:35:46;;;;;;;5.63;3.10;;;19.30;99.90;;;;;;5048069;28;20215;-82
2022/06/08 05:38:15;;;;;;;4.80;3.03;;;19.70;99.90;;;;;;5033981;28;20306;-82
2022/06/08 05:40:42;;;;;;;5.67;3.20;;;20.20;99.90;;;;;;5026065;28;20234;-81
2022/06/08 05:43:14;;;;;;;5.60;3.27;;;20.50;99.90;;;;;;5036759;28;20711;-82
2022/06/08 05:45:47;;;;;;;3.77;2.60;;;20.80;99.90;;;;;;5018287;28;20684;-81
2022/06/08 05:48:15;;;;;;;7.90;2.97;;;20.70;99.90;;;;;;5032937;28;20211;-80
2022/06/08 05:50:46;;;;;;;6.40;2.77;;;20.60;99.90;;;;;;5032664;28;20294;-81
2022/06/08 05:53:16;;;;;;;3.03;2.50;;;20.50;99.90;;;;;;5020602;28;20739;-82
2022/06/08 05:55:45;;;;;;;3.97;2.60;;;20.60;99.90;;;;;;5044091;28;20261;-81
2022/06/08 05:58:13;;;;;;;4.30;2.40;;;20.80;99.90;;;;;;5026653;28;20215;-82
2022/06/08 06:00:44;;;;;;;5.27;2.60;;;21.00;99.90;;;;;;5033106;28;20285;-81
2022/06/08 06:03:18;;;;;;;4.43;2.47;;;21.10;99.90;;;;;;5048797;28;20705;-80
2022/06/08 06:05:47;;;;;;;3.43;2.33;;;21.20;99.90;;;;;;5046136;28;20216;-81
2022/06/08 06:08:17;;;;;;;5.87;2.77;;;21.20;99.90;;;;;;5026129;28;20231;-81
2022/06/08 06:10:48;;;;;;;4.37;2.20;;;21.10;99.90;;;;;;5034408;28;20209;-81
2022/06/08 06:13:20;;;;;;;5.37;2.43;;;21.20;99.90;;;;;;5031174;28;20228;-81
2022/06/08 06:15:57;;;;;;;3.23;2.43;;;21.30;99.90;;;;;;5020372;28;20239;-80
2022/06/08 06:18:25;;;;;;;3.27;1.90;;;21.50;99.90;;;;;;5021637;28;20206;-79
2022/06/08 06:21:14;;;;;;;4.67;2.60;;;21.60;99.90;;;;;;5033544;28;20312;-80
2022/06/08 06:23:48;;;;;;;5.87;3.13;;;21.80;99.90;;;;;;5020416;28;20765;-81
2022/06/08 06:26:30;;;;;;;3.27;2.17;;;21.90;99.90;;;;;;5015976;28;20267;-81
2022/06/08 06:29:24;;;;;;;3.90;2.10;;;21.90;99.90;;;;;;5025874;28;20267;-81
2022/06/08 06:32:04;;;;;;;5.03;1.93;;;21.90;99.90;;;;;;5033816;28;20745;-81
2022/06/08 06:34:37;;;;;;;5.37;2.20;;;22.00;99.90;;;;;;5019660;28;20231;-79
2022/06/08 06:37:05;;;;;;;4.23;2.23;;;22.00;99.90;;;;;;5019232;28;20218;-79
2022/06/08 06:39:32;;;;;;;4.77;2.40;;;22.10;99.90;;;;;;5016059;28;20244;-80
2022/06/08 06:42:23;;;;;;;4.27;1.93;;;22.00;99.90;;;;;;5030514;28;20384;-81
2022/06/08 06:45:10;;;;;;;3.70;2.10;;;22.10;99.90;;;;;;5031116;28;20236;-79
2022/06/08 06:47:42;;;;;;;3.03;1.70;;;22.20;99.90;;;;;;5013479;28;20214;-80
2022/06/08 06:50:29;;;;;;;2.97;2.00;;;22.40;99.90;;;;;;5024367;28;20220;-80
2022/06/08 06:53:00;;;;;;;4.30;2.03;;;22.50;99.90;;;;;;5012709;28;20432;-80
2022/06/08 06:55:33;;;;;;;4.67;1.90;;;22.70;99.90;;;;;;5018568;28;20283;-80
2022/06/08 06:58:26;;;;;;;3.27;1.70;;;22.90;99.90;;;;;;5027708;28;20219;-79
2022/06/08 07:00:54;;;;;;;3.23;2.07;;;23.00;99.90;;;;;;5021011;28;20618;-80
2022/06/08 07:03:22;;;;;;;2.60;1.80;;;22.90;99.90;;;;;;5014712;28;20732;-80
2022/06/08 07:05:50;;;;;;;3.77;1.97;;;23.00;99.90;;;;;;5008359;28;20617;-80
2022/06/08 07:08:19;;;;;;;6.20;2.17;;;22.90;99.90;;;;;;5011823;28;20702;-81
2022/06/08 07:11:32;;;;;;;4.10;2.23;;;22.90;99.90;;;;;;5010386;28;20213;-81
2022/06/08 07:13:37;;;;;;;3.40;1.80;;;22.90;99.90;;;;;;5008284;28;20237;-79
2022/06/08 07:16:06;;;;;;;2.30;1.80;;;22.80;99.90;;;;;;5026240;28;20303;-80
2022/06/08 07:18:34;;;;;;;3.00;2.00;;;22.80;99.90;;;;;;5011403;28;20221;-79
2022/06/08 07:21:01;;;;;;;5.30;2.00;;;23.00;99.90;;;;;;5027254;28;20252;-79
2022/06/08 07:23:29;;;;;;;;;;;23.20;99.90;;;;;;5026842;28;20255;-77
2022/06/08 07:25:56;;;;;;;;;;;23.40;99.90;;;;;;5036854;28;20290;-79
2022/06/08 07:28:23;;;;;;;;;;;23.60;99.90;;;;;;5030686;28;20020;-79
2022/06/08 07:30:50;;;;;;;;;;;23.70;99.90;;;;;;5035012;28;19931;-80
2022/06/08 07:33:16;;;;;;;;;;;23.80;99.90;;;;;;5025966;28;19921;-79
2022/06/08 07:35:44;;;;;;;;;;;23.90;99.90;;;;;;5025518;28;20705;-81
2022/06/08 07:38:11;;;;;;;;;;;24.10;99.90;;;;;;5028240;28;19981;-81
2022/06/08 07:40:40;;;;;;;;;;;24.20;99.90;;;;;;5031239;28;19928;-80
2022/06/08 07:43:06;;;;;;;;;;;24.10;99.90;;;;;;5011649;28;20337;-79
2022/06/08 07:45:33;;;;;;;;;;;23.90;99.90;;;;;;5028726;28;20001;-79
2022/06/08 07:50:45;;;;;;;;;;;23.60;99.90;;;;;;5034875;28;19924;-80
2022/06/08 07:53:12;;;;;;;;;;;23.40;99.90;;;;;;5030523;28;19984;-79
2022/06/08 07:55:40;;;;;;;;;;;23.30;99.90;;;;;;5032296;28;19924;-79
2022/06/08 07:58:07;;;;;;;;;;;23.20;99.90;;;;;;5033179;28;20056;-80
2022/06/08 08:00:34;;;;;;;;;;;23.10;99.90;;;;;;5032888;28;20077;-80
2022/06/08 08:03:01;;;;;;;;;;;22.90;99.90;;;;;;5029254;28;20325;-79
2022/06/08 08:05:27;;;;;;;;;;;22.70;99.90;;;;;;5027913;28;20139;-79
2022/06/08 08:07:55;;;;;;;;;;;22.60;99.90;;;;;;5027087;28;19924;-81
2022/06/08 08:10:23;;;;;;;;;;;22.60;99.90;;;;;;5010119;28;19925;-79
2022/06/08 08:12:55;;;;;;;;;;;22.50;99.90;;;;;;5026867;28;19943;-80
2022/06/08 08:15:22;;;;;;;;;;;22.40;99.90;;;;;;5027550;28;19920;-80
2022/06/08 08:17:49;;;;;;;;;;;22.50;99.90;;;;;;5026932;28;19925;-77
2022/06/08 08:20:17;;;;;;;;;;;22.50;99.90;;;;;;5026622;28;20620;-77
2022/06/08 08:22:46;;;;;;;;;;;22.60;99.90;;;;;;5031048;28;19929;-77
2022/06/08 08:25:14;;;;;;;;;;;22.70;99.90;;;;;;5044063;28;19961;-77
2022/06/08 08:27:42;;;;;;;;;;;22.90;99.90;;;;;;5045038;28;19993;-76
2022/06/08 08:30:12;;;;;;;;;;;23.20;99.90;;;;;;5044352;28;20331;-76
2022/06/08 08:32:40;;;;;;;;;;;23.50;99.90;;;;;;5041959;28;20196;-77
2022/06/08 08:35:07;;;;;;;;;;;23.90;99.90;;;;;;5034495;28;19925;-77
2022/06/08 08:37:34;;;;;;;;;;;24.10;99.90;;;;;;5038486;28;19972;-77
2022/06/08 08:40:01;;;;;;;;;;;24.30;99.90;;;;;;5021404;28;20007;-77
2022/06/08 08:42:28;;;;;;;;;;;24.50;99.90;;;;;;5017446;28;20486;-77
2022/06/08 08:44:57;;;;;;;;;;;24.70;99.90;;;;;;5027851;28;19979;-76
2022/06/08 08:47:29;;;;;;;;;;;25.10;99.90;;;;;;5028872;28;20374;-76
2022/06/08 08:49:56;;;;;;;;;;;25.30;99.90;;;;;;5031947;28;19979;-76
2022/06/08 08:52:29;;;;;;;;;;;25.70;99.90;;;;;;5033439;28;19925;-76
2022/06/08 08:54:58;;;;;;;;;;;26.10;99.90;;;;;;5037491;28;20374;-77
2022/06/08 08:57:31;;;;;;;7.43;3.30;;;26.60;99.90;;;;;;5029674;28;20929;-77
2022/06/08 08:59:59;;;;;;;89.32;57.55;;;27.40;99.90;;;;;;5025242;28;20416;-77
2022/06/08 09:05:18;;;;;;;6.25;3.70;;;28.70;99.90;;;;;;5031940;28;20212;-77
2022/06/08 09:07:46;;;;;;;74.70;20.08;;;29.20;99.90;;;;;;5030949;28;20242;-77
2022/06/08 09:10:17;;;;;;;8.40;3.30;;;29.60;99.90;;;;;;5030526;28;20278;-78
2022/06/08 09:12:44;;;;;;;9.75;4.07;;;30.10;99.90;;;;;;5030869;28;20272;-78
2022/06/08 09:15:14;;;;;;;30.60;8.93;;;30.20;99.90;;;;;;5032153;28;20240;-78
2022/06/08 09:17:56;;;;;;;9.65;3.30;;;30.00;99.90;;;;;;5031417;28;20206;-78
2022/06/08 09:20:28;;;;;;;7.15;3.10;;;30.00;99.90;;;;;;5026204;28;20252;-78
2022/06/08 09:22:58;;;;;;;10.73;3.85;;;30.20;99.90;;;;;;5017429;28;20233;-78
2022/06/08 09:25:29;;;;;;;6.88;2.30;;;30.80;99.90;;;;;;5014871;28;20210;-78
2022/06/08 09:27:57;;;;;;;4.57;2.20;;;31.20;99.90;;;;;;5031234;28;20228;-78
2022/06/08 09:30:27;;;;;;;6.20;2.60;;;31.60;99.90;;;;;;5038554;28;20267;-78
2022/06/08 09:32:59;;;;;;;6.43;2.50;;;32.00;99.90;;;;;;5036447;28;20772;-77
2022/06/08 09:35:29;;;;;;;5.95;2.55;;;32.20;99.90;;;;;;5038726;28;20206;-77
2022/06/08 09:37:59;;;;;;;9.13;3.13;;;31.90;99.90;;;;;;5044076;28;20201;-78
2022/06/08 09:40:38;;;;;;;5.10;2.50;;;31.60;99.90;;;;;;5043760;28;20283;-79
2022/06/08 09:43:31;;;;;;;9.60;3.10;;;31.40;99.90;;;;;;5033927;28;20552;-78
2022/06/08 09:46:04;;;;;;;7.68;2.70;;;31.20;99.90;;;;;;5036294;28;20310;-79
2022/06/08 09:52:13;;;;;;;13.23;4.60;;;30.80;99.90;;;;;;4946707;28;20235;-78
2022/06/08 09:54:48;;;;;;;32.85;8.70;;;30.80;99.90;;;;;;4956521;28;20706;-77
2022/06/08 09:57:30;;;;;;;28.33;6.57;;;30.40;99.20;;;;;;5003000;28;20281;-78
2022/06/08 10:00:20;;;;;;;43.33;10.30;;;30.00;98.90;;;;;;5047140;28;20225;-78
2022/06/08 10:02:56;;;;;;;5.17;2.37;;;29.40;99.90;;;;;;5034714;28;20336;-77
2022/06/08 10:05:34;;;;;;;46.23;11.57;;;29.20;99.80;;;;;;5032246;28;20211;-77
2022/06/08 10:08:14;;;;;;;6.10;2.47;;;29.10;99.90;;;;;;5034391;28;20213;-78
2022/06/08 10:10:47;;;;;;;7.77;2.67;;;29.10;99.90;;;;;;5040606;28;20216;-77
2022/06/08 10:13:20;;;;;;;7.73;3.10;;;29.00;99.90;;;;;;5042825;28;20237;-78
2022/06/08 10:15:50;;;;;;;11.53;3.20;;;28.90;99.90;;;;;;5035923;28;20497;-77
2022/06/08 10:18:22;;;;;;;7.73;3.33;;;28.80;99.90;;;;;;5038049;28;20242;-77
2022/06/08 10:20:54;;;;;;;8.13;2.97;;;28.60;99.90;;;;;;5019887;28;20342;-78
2022/06/08 10:23:35;;;;;;;7.03;2.53;;;28.30;99.90;;;;;;5014583;28;20261;-78
2022/06/08 10:26:08;;;;;;;5.13;2.13;;;28.20;99.90;;;;;;5031885;28;20748;-78
2022/06/08 10:28:41;;;;;;;5.70;2.30;;;27.90;99.90;;;;;;5033718;28;20255;-78
2022/06/08 10:31:16;;;;;;;7.40;2.50;;;27.80;99.90;;;;;;5034790;28;20205;-78
2022/06/08 10:33:52;;;;;;;7.10;2.60;;;27.70;99.90;;;;;;5024399;28;20224;-78
2022/06/08 10:36:21;;;;;;;5.40;2.50;;;27.50;99.90;;;;;;5030692;28;20308;-78
2022/06/08 10:38:48;;;;;;;7.10;2.57;;;27.50;99.90;;;;;;5020854;28;20650;-78
2022/06/08 10:44:29;;;;;;;8.53;2.37;;;26.10;99.90;;;;;;5027765;28;20209;-78
2022/06/08 10:47:09;;;;;;;13.37;4.03;;;25.10;99.90;;;;;;5045276;28;20217;-78
2022/06/08 10:49:52;;;;;;;5.97;2.77;;;24.20;99.90;;;;;;5047212;28;20796;-78
2022/06/08 10:52:40;;;;;;;7.77;3.10;;;23.20;99.90;;;;;;5047955;28;20274;-78
2022/06/08 10:55:39;;;;;;;11.07;3.83;;;23.00;99.90;;;;;;5040755;28;20216;-79
2022/06/08 10:58:22;;;;;;;19.23;5.37;;;22.40;99.90;;;;;;5034986;28;20761;-79
2022/06/08 11:01:21;;;;;;;11.27;4.17;;;21.90;99.90;;;;;;5025434;28;20232;-78
2022/06/08 11:03:57;;;;;;;11.40;3.47;;;21.30;99.90;;;;;;5040218;28;20244;-79
2022/06/08 11:07:04;;;;;;;11.83;3.57;;;21.00;99.90;;;;;;5039351;28;20292;-79
2022/06/08 11:10:03;;;;;;;12.83;3.40;;;20.80;99.90;;;;;;5031642;28;20205;-78
2022/06/08 11:12:36;;;;;;;9.03;3.83;;;20.50;99.90;;;;;;5030908;28;20265;-77
2022/06/08 11:15:11;;;;;;;10.87;3.80;;;20.50;99.90;;;;;;5031189;28;20205;-78
2022/06/08 11:17:48;;;;;;;10.03;3.40;;;20.50;99.90;;;;;;5031477;28;20208;-79
2022/06/08 11:20:19;;;;;;;11.33;3.87;;;20.60;99.90;;;;;;5027079;28;20258;-82
2022/06/08 11:22:52;;;;;;;8.57;3.50;;;20.70;99.90;;;;;;5027260;28;20347;-83
2022/06/08 11:25:27;;;;;;;9.47;3.70;;;20.70;99.90;;;;;;5032383;28;20205;-81
2022/06/08 11:28:27;;;;;;;8.20;3.60;;;20.80;99.90;;;;;;5027320;28;20783;-83
2022/06/08 11:30:56;;;;;;;8.87;3.90;;;20.90;99.90;;;;;;5029326;28;20222;-83
2022/06/08 11:33:44;;;;;;;10.47;3.20;;;21.00;99.90;;;;;;5037218;28;20232;-83
2022/06/08 11:36:30;;;;;;;12.43;4.23;;;21.10;99.90;;;;;;5012276;28;20226;-82
2022/06/08 11:39:01;;;;;;;12.10;3.73;;;21.10;99.90;;;;;;5031840;28;20209;-83
2022/06/08 11:41:36;;;;;;;15.47;4.03;;;21.00;99.90;;;;;;5032755;28;20357;-83
2022/06/08 11:44:17;;;;;;;9.33;3.50;;;20.90;99.90;;;;;;5035137;28;20319;-82
2022/06/08 11:46:48;;;;;;;14.20;4.00;;;20.70;99.90;;;;;;5031363;28;20267;-83
2022/06/08 11:49:32;;;;;;;12.87;4.43;;;20.40;99.90;;;;;;5028803;28;20213;-82
2022/06/08 11:51:59;;;;;;;8.97;4.03;;;19.90;99.90;;;;;;5023192;28;20264;-85
2022/06/08 11:54:31;;;;;;;9.63;3.20;;;19.90;99.90;;;;;;5016513;28;20605;-85
2022/06/08 11:57:12;;;;;;;6.60;3.10;;;19.50;99.90;;;;;;5033593;28;20228;-82
2022/06/08 11:59:43;;;;;;;8.50;3.67;;;19.40;99.90;;;;;;5014978;28;20210;-82
2022/06/08 12:02:20;;;;;;;13.23;3.80;;;19.30;99.90;;;;;;5029938;28;20233;-81
2022/06/08 12:04:51;;;;;;;9.87;3.63;;;19.30;99.90;;;;;;5042649;28;20209;-81
2022/06/08 12:07:39;;;;;;;10.10;3.67;;;19.40;99.90;;;;;;5041843;28;20557;-79
2022/06/08 12:10:08;;;;;;;10.70;4.20;;;19.40;99.90;;;;;;5034785;28;20266;-81
2022/06/08 12:12:36;;;;;;;13.60;3.87;;;19.50;99.90;;;;;;5007996;28;20303;-81
2022/06/08 12:15:32;;;;;;;9.23;3.77;;;19.60;99.90;;;;;;5036931;28;20236;-82
2022/06/08 12:18:10;;;;;;;12.40;3.93;;;19.80;99.90;;;;;;5036905;28;20220;-81
2022/06/08 12:20:39;;;;;;;8.40;3.70;;;19.90;99.90;;;;;;5035201;28;20201;-80
2022/06/08 12:23:06;;;;;;;10.37;3.63;;;19.90;99.90;;;;;;5033756;28;20230;-83
2022/06/08 12:25:35;;;;;;;10.70;3.67;;;19.90;99.90;;;;;;5034145;28;20277;-82
2022/06/08 12:28:18;;;;;;;8.67;3.67;;;19.80;99.90;;;;;;5033233;28;20278;-81
2022/06/08 12:30:58;;;;;;;10.40;4.10;;;19.80;99.90;;;;;;5043665;28;20209;-81
2022/06/08 12:33:29;;;;;;;9.93;4.20;;;19.80;99.90;;;;;;5026304;28;20226;-81
2022/06/08 12:35:58;;;;;;;10.53;3.50;;;19.70;99.90;;;;;;5040166;28;20260;-85
2022/06/08 12:38:28;;;;;;;11.47;3.77;;;19.80;99.90;;;;;;5019839;28;20210;-81
2022/06/08 12:41:05;;;;;;;11.83;3.73;;;19.80;99.90;;;;;;5034218;28;20213;-81
2022/06/08 12:43:47;;;;;;;12.77;4.20;;;19.90;99.90;;;;;;5045597;28;20233;-82
2022/06/08 12:46:34;;;;;;;11.37;4.00;;;20.00;99.90;;;;;;5045074;28;20213;-84
2022/06/08 12:49:20;;;;;;;9.00;3.83;;;20.10;99.90;;;;;;5055605;28;20258;-81
2022/06/08 12:51:56;;;;;;;14.67;4.57;;;20.10;99.90;;;;;;5040712;28;20194;-83
2022/06/08 12:54:28;;;;;;;9.13;4.00;;;20.10;99.90;;;;;;5045523;28;20595;-82
2022/06/08 12:56:58;;;;;;;9.97;4.03;;;20.10;99.90;;;;;;5016821;28;20225;-82
2022/06/08 12:59:27;;;;;;;12.97;4.77;;;20.10;99.90;;;;;;5038416;28;20210;-82
2022/06/08 13:01:56;;;;;;;10.03;4.30;;;19.90;99.90;;;;;;5016642;28;20241;-83
2022/06/08 13:04:25;;;;;;;13.53;4.93;;;19.90;99.90;;;;;;5033312;28;20566;-82
2022/06/08 13:06:52;;;;;;;8.73;3.83;;;19.90;99.90;;;;;;5044939;28;20260;-84
2022/06/08 13:09:21;;;;;;;11.30;4.20;;;19.80;99.90;;;;;;5047123;28;20284;-83
2022/06/08 13:11:54;;;;;;;10.23;4.30;;;19.70;99.90;;;;;;5045971;28;20202;-79
2022/06/08 13:14:29;;;;;;;16.50;4.17;;;19.70;99.90;;;;;;5043187;28;20261;-80
2022/06/08 13:17:00;;;;;;;11.83;3.77;;;19.60;99.90;;;;;;5047109;28;20224;-81
2022/06/08 13:19:29;;;;;;;8.20;3.50;;;19.50;99.90;;;;;;5041412;28;20253;-83
2022/06/08 13:21:56;;;;;;;10.93;3.63;;;19.60;99.90;;;;;;5043388;28;20233;-78
2022/06/08 13:24:24;;;;;;;9.43;3.73;;;19.60;99.90;;;;;;5033271;28;20209;-78
2022/06/08 13:26:53;;;;;;;11.80;4.00;;;19.80;99.90;;;;;;5036011;28;20213;-79
2022/06/08 13:29:22;;;;;;;10.53;3.77;;;20.10;99.90;;;;;;5032209;28;20228;-79
2022/06/08 13:34:21;;;;;;;9.27;3.60;;;19.90;99.90;;;;;;5018417;28;20218;-80
2022/06/08 13:36:53;;;;;;;10.60;3.87;;;20.60;99.90;;;;;;5020986;28;20324;-79